createdAt,value
2019-03-05T00:01:55.187Z,2.60
2019-03-05T00:04:24.850Z,2.53
2019-03-05T00:06:54.610Z,1.82
2019-03-05T00:09:24.581Z,1.93
2019-03-05T00:11:54.239Z,2.27
2019-03-05T00:14:24.132Z,1.87
2019-03-05T00:16:54.813Z,1.85
2019-03-05T00:19:24.466Z,1.73
2019-03-05T00:21:54.131Z,2.07
2019-03-05T00:25:19.338Z,2.17
2019-03-05T00:27:53.747Z,1.73
2019-03-05T00:30:35.902Z,1.50
2019-03-05T00:33:21.977Z,2.07
2019-03-05T00:36:06.762Z,1.20
2019-03-05T00:39:33.086Z,1.80
2019-03-05T00:42:43.159Z,2.03
2019-03-05T00:45:34.498Z,2.08
2019-03-05T00:48:51.039Z,1.90
2019-03-05T00:51:49.524Z,1.95
2019-03-05T00:54:36.437Z,1.50
2019-03-05T00:57:12.243Z,1.92
2019-03-05T00:59:57.697Z,1.50
2019-03-05T01:02:37.913Z,1.00
2019-03-05T01:05:44.300Z,1.53
2019-03-05T01:08:14.317Z,1.03
2019-03-05T01:10:44.044Z,1.40
2019-03-05T01:13:14.326Z,1.40
2019-03-05T01:15:44.067Z,1.10
2019-03-05T01:18:13.730Z,1.40
2019-03-05T01:20:43.442Z,1.20
2019-03-05T01:23:13.113Z,1.70
2019-03-05T01:25:43.013Z,1.60
2019-03-05T01:28:12.926Z,1.42
2019-03-05T01:31:01.095Z,1.60
2019-03-05T01:33:36.374Z,1.23
2019-03-05T01:36:10.647Z,1.00
2019-03-05T01:39:05.236Z,1.60
2019-03-05T01:41:35.057Z,1.47
2019-03-05T01:44:05.232Z,1.20
2019-03-05T01:46:34.885Z,1.40
2019-03-05T01:49:04.800Z,1.30
2019-03-05T01:51:34.459Z,1.30
2019-03-05T01:54:04.312Z,1.50
2019-03-05T01:56:33.965Z,1.50
2019-03-05T01:59:03.761Z,1.47
2019-03-05T02:01:33.459Z,1.90
2019-03-05T02:04:03.298Z,1.50
2019-03-05T02:06:33.026Z,2.12
2019-03-05T02:09:04.541Z,1.57
2019-03-05T02:11:37.233Z,2.05
2019-03-05T02:14:07.346Z,2.30
2019-03-05T02:16:37.177Z,1.90
2019-03-05T02:19:41.827Z,2.52
2019-03-05T02:22:20.404Z,2.13
2019-03-05T02:25:37.964Z,1.57
2019-03-05T02:28:46.491Z,2.00
2019-03-05T02:32:09.285Z,2.00
2019-03-05T02:35:05.661Z,1.73
2019-03-05T02:37:56.860Z,0.90
2019-03-05T02:40:38.897Z,2.00
2019-03-05T02:43:44.180Z,2.47
2019-03-05T02:46:30.811Z,1.77
2019-03-05T02:49:18.502Z,1.67
2019-03-05T02:51:58.880Z,2.35
2019-03-05T02:54:42.778Z,1.80
2019-03-05T02:57:11.459Z,0.78
2019-03-05T02:59:41.197Z,0.83
2019-03-05T03:02:42.325Z,1.73
2019-03-05T03:05:43.715Z,1.13
2019-03-05T03:08:13.717Z,1.07
2019-03-05T03:10:43.740Z,0.65
2019-03-05T03:13:13.911Z,0.90
2019-03-05T03:15:43.589Z,1.30
2019-03-05T03:18:13.569Z,0.93
2019-03-05T03:20:43.305Z,1.20
2019-03-05T03:23:12.964Z,1.10
2019-03-05T03:25:42.913Z,0.95
2019-03-05T03:28:12.565Z,1.20
2019-03-05T03:30:42.643Z,0.90
2019-03-05T03:33:13.351Z,1.30
2019-03-05T03:35:43.039Z,0.88
2019-03-05T03:38:12.764Z,1.02
2019-03-05T03:40:42.517Z,0.60
2019-03-05T03:43:12.169Z,0.70
2019-03-05T03:45:41.947Z,0.53
2019-03-05T03:48:11.583Z,0.82
2019-03-05T03:50:41.252Z,1.03
2019-03-05T03:53:10.990Z,1.13
2019-03-05T03:55:40.666Z,1.30
2019-03-05T03:58:10.344Z,1.30
2019-03-05T04:00:39.994Z,1.43
2019-03-05T04:03:09.696Z,0.77
2019-03-05T04:05:39.502Z,0.73
2019-03-05T04:08:10.601Z,0.97
2019-03-05T04:10:40.325Z,1.42
2019-03-05T04:13:10.362Z,0.83
2019-03-05T04:15:40.048Z,0.90
2019-03-05T04:18:09.712Z,0.47
2019-03-05T04:20:45.968Z,1.07
2019-03-05T04:23:15.623Z,0.80
2019-03-05T04:25:46.500Z,1.10
2019-03-05T04:28:17.127Z,1.10
2019-03-05T04:30:47.056Z,0.40
2019-03-05T04:33:16.722Z,1.20
2019-03-05T04:35:46.373Z,0.50
2019-03-05T04:38:16.238Z,0.73
2019-03-05T04:40:45.893Z,0.93
2019-03-05T04:43:15.551Z,0.60
2019-03-05T04:45:50.381Z,0.50
2019-03-05T04:48:20.425Z,1.20
2019-03-05T04:51:02.467Z,0.60
2019-03-05T04:53:32.249Z,0.90
2019-03-05T04:56:01.941Z,0.60
2019-03-05T04:58:31.608Z,0.60
2019-03-05T05:01:01.363Z,0.50
2019-03-05T05:03:31.024Z,0.35
2019-03-05T05:06:01.108Z,0.40
2019-03-05T05:08:30.770Z,0.90
2019-03-05T05:11:00.503Z,1.10
2019-03-05T05:13:30.170Z,0.70
2019-03-05T05:15:59.878Z,0.53
2019-03-05T05:18:30.135Z,0.60
2019-03-05T05:21:00.144Z,0.40
2019-03-05T05:23:30.062Z,0.90
2019-03-05T05:25:59.710Z,0.60
2019-03-05T05:28:29.376Z,1.47
2019-03-05T05:30:59.044Z,1.13
2019-03-05T05:33:29.106Z,0.60
2019-03-05T05:35:58.766Z,1.03
2019-03-05T05:38:28.459Z,0.63
2019-03-05T05:40:58.118Z,0.77
2019-03-05T05:43:30.005Z,0.30
2019-03-05T05:46:00.800Z,0.57
2019-03-05T05:48:30.566Z,0.60
2019-03-05T05:51:00.244Z,0.27
2019-03-05T05:53:29.956Z,1.23
2019-03-05T05:55:59.829Z,0.50
2019-03-05T05:58:29.601Z,0.60
2019-03-05T06:01:01.622Z,0.63
2019-03-05T06:03:31.363Z,0.50
2019-03-05T06:06:01.092Z,0.80
2019-03-05T06:08:30.865Z,0.87
2019-03-05T06:11:00.970Z,0.50
2019-03-05T06:13:30.974Z,0.70
2019-03-05T06:16:00.631Z,0.70
2019-03-05T06:18:30.351Z,0.93
2019-03-05T06:21:00.033Z,0.47
2019-03-05T06:23:29.936Z,0.70
2019-03-05T06:25:59.594Z,0.45
2019-03-05T06:28:29.244Z,0.40
2019-03-05T06:30:59.245Z,0.53
2019-03-05T06:33:28.976Z,1.07
2019-03-05T06:35:58.654Z,0.70
2019-03-05T06:38:28.569Z,0.60
2019-03-05T06:40:58.333Z,0.40
2019-03-05T06:43:28.104Z,0.88
2019-03-05T06:45:58.038Z,0.73
2019-03-05T06:48:27.694Z,0.67
2019-03-05T06:50:57.355Z,0.60
2019-03-05T06:53:27.067Z,0.87
2019-03-05T06:55:57.088Z,0.67
2019-03-05T06:58:26.776Z,0.90
2019-03-05T07:00:56.692Z,0.80
2019-03-05T07:03:26.344Z,0.80
2019-03-05T07:06:32.142Z,0.80
2019-03-05T07:09:25.238Z,1.00
2019-03-05T07:12:17.197Z,0.50
2019-03-05T07:15:30.359Z,1.10
2019-03-05T07:18:05.683Z,1.07
2019-03-05T07:21:03.177Z,0.50
2019-03-05T07:24:07.799Z,1.03
2019-03-05T07:26:37.536Z,1.00
2019-03-05T07:29:07.293Z,0.97
2019-03-05T07:31:36.958Z,0.87
2019-03-05T07:34:08.580Z,1.20
2019-03-05T07:36:38.343Z,1.25
2019-03-05T07:39:10.261Z,0.67
2019-03-05T07:41:39.977Z,0.60
2019-03-05T07:44:09.649Z,0.90
2019-03-05T07:46:39.402Z,0.70
2019-03-05T07:49:09.144Z,0.40
2019-03-05T07:51:38.806Z,1.00
2019-03-05T07:54:08.480Z,0.93
2019-03-05T07:56:38.223Z,0.70
2019-03-05T07:59:07.882Z,0.97
2019-03-05T08:01:37.631Z,0.37
2019-03-05T08:04:07.633Z,0.60
2019-03-05T08:06:37.315Z,0.20
2019-03-05T08:09:32.208Z,0.57
2019-03-05T08:13:01.690Z,0.10
2019-03-05T08:15:42.602Z,0.53
2019-03-05T08:18:12.347Z,0.30
2019-03-05T08:20:42.420Z,0.80
2019-03-05T08:23:12.811Z,1.30
2019-03-05T08:25:42.658Z,0.50
2019-03-05T08:28:12.401Z,0.57
2019-03-05T08:30:42.248Z,0.15
2019-03-05T08:33:12.795Z,0.42
2019-03-05T08:35:42.524Z,0.80
2019-03-05T08:38:12.330Z,0.60
2019-03-05T08:40:42.063Z,1.13
2019-03-05T08:43:12.986Z,0.00
2019-03-05T08:45:42.658Z,0.30
2019-03-05T08:48:12.380Z,0.10
2019-03-05T08:50:42.367Z,0.68
2019-03-05T08:53:12.357Z,0.23
2019-03-05T08:55:42.025Z,0.55
2019-03-05T08:58:11.912Z,0.47
2019-03-05T09:00:41.722Z,0.42
2019-03-05T09:03:11.727Z,0.10
2019-03-05T09:05:41.543Z,0.10
2019-03-05T09:08:11.257Z,0.50
2019-03-05T09:10:41.015Z,0.40
2019-03-05T09:13:11.028Z,0.90
2019-03-05T09:15:40.807Z,0.50
2019-03-05T09:18:11.741Z,0.50
2019-03-05T09:20:41.565Z,0.97
2019-03-05T09:23:11.347Z,0.37
2019-03-05T09:25:41.212Z,0.80
2019-03-05T09:28:10.953Z,0.63
2019-03-05T09:30:40.851Z,0.20
2019-03-05T09:33:10.705Z,0.47
2019-03-05T09:35:40.369Z,0.70
2019-03-05T09:38:10.118Z,0.55
2019-03-05T09:40:39.910Z,0.60
2019-03-05T09:43:10.130Z,0.80
2019-03-05T09:45:39.818Z,0.60
2019-03-05T09:48:09.671Z,0.70
2019-03-05T09:50:39.384Z,0.93
2019-03-05T09:53:09.383Z,0.43
2019-03-05T09:55:39.060Z,0.95
2019-03-05T09:58:09.435Z,0.50
2019-03-05T10:00:39.486Z,1.07
2019-03-05T10:03:09.298Z,0.87
2019-03-05T10:05:38.991Z,0.93
2019-03-05T10:08:08.948Z,1.00
2019-03-05T10:10:39.124Z,0.67
2019-03-05T10:13:08.908Z,0.60
2019-03-05T10:15:38.555Z,0.87
2019-03-05T10:18:12.696Z,0.83
2019-03-05T10:20:40.119Z,0.68
2019-03-05T10:23:10.575Z,0.57
2019-03-05T10:25:40.328Z,0.40
2019-03-05T10:28:10.068Z,0.62
2019-03-05T10:30:40.526Z,0.63
2019-03-05T10:33:11.563Z,0.70
2019-03-05T10:35:41.224Z,1.10
2019-03-05T10:38:12.235Z,1.05
2019-03-05T10:40:43.057Z,0.70
2019-03-05T10:43:13.936Z,0.37
2019-03-05T10:45:45.637Z,0.80
2019-03-05T10:48:17.260Z,1.00
2019-03-05T10:50:47.705Z,0.62
2019-03-05T10:53:19.248Z,0.70
2019-03-05T10:55:49.279Z,0.40
2019-03-05T10:58:19.340Z,0.60
2019-03-05T11:00:49.265Z,0.60
2019-03-05T11:03:20.775Z,0.50
2019-03-05T11:05:50.971Z,0.90
2019-03-05T11:08:23.138Z,0.40
2019-03-05T11:10:53.406Z,0.50
2019-03-05T11:13:23.224Z,1.10
2019-03-05T11:15:55.299Z,0.73
2019-03-05T11:18:29.279Z,0.30
2019-03-05T11:20:56.716Z,0.80
2019-03-05T11:23:26.476Z,0.60
2019-03-05T11:25:56.206Z,0.73
2019-03-05T11:28:26.084Z,0.80
2019-03-05T11:30:55.725Z,0.80
2019-03-05T11:33:25.761Z,0.90
2019-03-05T11:35:55.753Z,0.53
2019-03-05T11:38:25.433Z,1.10
2019-03-05T11:40:55.190Z,1.00
2019-03-05T11:43:26.306Z,0.67
2019-03-05T11:45:56.133Z,0.40
2019-03-05T11:48:25.879Z,1.10
2019-03-05T11:50:55.668Z,0.20
2019-03-05T11:53:25.577Z,0.57
2019-03-05T11:55:55.297Z,0.60
2019-03-05T11:58:24.997Z,0.40
2019-03-05T12:01:04.363Z,0.30
2019-03-05T12:03:34.423Z,0.50
2019-03-05T12:06:04.258Z,0.60
2019-03-05T12:08:33.910Z,0.20
2019-03-05T12:11:03.622Z,0.30
2019-03-05T12:13:34.255Z,0.50
2019-03-05T12:16:08.810Z,0.50
2019-03-05T12:18:38.503Z,0.70
2019-03-05T12:21:08.236Z,0.47
2019-03-05T12:23:37.956Z,0.50
2019-03-05T12:26:07.977Z,0.40
2019-03-05T12:28:37.995Z,0.77
2019-03-05T12:31:07.931Z,0.93
2019-03-05T12:33:37.581Z,0.93
2019-03-05T12:36:08.358Z,0.67
2019-03-05T12:38:38.015Z,1.00
2019-03-05T12:41:08.038Z,0.70
2019-03-05T12:43:37.701Z,0.73
2019-03-05T12:46:07.432Z,1.07
2019-03-05T12:48:40.240Z,0.30
2019-03-05T12:51:09.874Z,0.13
2019-03-05T12:53:40.078Z,0.10
2019-03-05T12:56:09.808Z,0.70
2019-03-05T12:58:39.426Z,0.90
2019-03-05T13:01:09.925Z,0.80
2019-03-05T13:03:39.592Z,0.68
2019-03-05T13:06:10.227Z,0.90
2019-03-05T13:08:39.958Z,0.55
2019-03-05T13:11:12.979Z,0.53
2019-03-05T13:13:41.494Z,0.63
2019-03-05T13:16:13.780Z,0.60
2019-03-05T13:18:42.614Z,0.80
2019-03-05T13:21:12.345Z,0.80
2019-03-05T13:23:42.102Z,1.07
2019-03-05T13:26:11.861Z,1.60
2019-03-05T13:28:41.675Z,1.45
2019-03-05T13:31:11.345Z,1.30
2019-03-05T13:33:42.172Z,1.73
2019-03-05T13:36:13.561Z,1.50
2019-03-05T13:38:45.216Z,1.87
2019-03-05T13:41:15.576Z,1.90
2019-03-05T13:43:46.264Z,1.90
2019-03-05T13:46:15.929Z,1.40
2019-03-05T13:49:40.349Z,1.50
2019-03-05T13:52:32.220Z,1.40
2019-03-05T13:55:23.496Z,1.40
2019-03-05T13:58:32.056Z,1.45
2019-03-05T14:01:02.414Z,1.47
2019-03-05T14:03:37.818Z,1.50
2019-03-05T14:06:34.286Z,1.50
2019-03-05T14:09:15.337Z,1.30
2019-03-05T14:11:46.133Z,1.90
2019-03-05T14:14:19.042Z,1.67
2019-03-05T14:16:52.170Z,1.67
2019-03-05T14:19:22.885Z,1.40
2019-03-05T14:21:52.677Z,1.60
2019-03-05T14:24:22.379Z,1.42
2019-03-05T14:26:52.458Z,1.20
2019-03-05T14:29:22.125Z,1.10
2019-03-05T14:31:51.766Z,1.60
2019-03-05T14:34:21.443Z,1.30
2019-03-05T14:36:51.135Z,1.30
2019-03-05T14:39:24.696Z,1.10
2019-03-05T14:41:55.124Z,1.50
2019-03-05T14:44:24.996Z,1.20
2019-03-05T14:46:56.611Z,1.27
2019-03-05T14:49:26.739Z,1.30
2019-03-05T14:51:56.373Z,1.22
2019-03-05T14:54:26.232Z,1.20
2019-03-05T14:56:55.900Z,1.27
2019-03-05T14:59:25.786Z,0.93
2019-03-05T15:01:55.502Z,1.47
2019-03-05T15:04:25.671Z,1.23
2019-03-05T15:06:56.184Z,0.80
2019-03-05T15:09:25.931Z,0.85
2019-03-05T15:11:55.582Z,0.60
2019-03-05T15:14:26.488Z,0.90
2019-03-05T15:16:56.285Z,0.70
2019-03-05T15:19:26.024Z,0.80
2019-03-05T15:21:55.844Z,0.78
2019-03-05T15:24:26.159Z,2.37
2019-03-05T15:26:56.112Z,0.67
2019-03-05T15:29:26.090Z,0.80
2019-03-05T15:31:56.170Z,0.37
2019-03-05T15:34:25.808Z,0.53
2019-03-05T15:36:55.484Z,0.90
2019-03-05T15:39:25.233Z,0.73
2019-03-05T15:41:55.007Z,0.50
2019-03-05T15:44:24.749Z,0.90
2019-03-05T15:46:54.443Z,1.10
2019-03-05T15:49:24.133Z,0.73
2019-03-05T15:51:54.241Z,0.70
2019-03-05T15:54:24.243Z,1.00
2019-03-05T15:56:54.306Z,1.20
2019-03-05T15:59:24.328Z,0.70
2019-03-05T16:01:54.086Z,1.10
2019-03-05T16:04:24.002Z,1.00
2019-03-05T16:06:53.997Z,1.07
2019-03-05T16:09:23.658Z,1.05
2019-03-05T16:11:53.618Z,1.00
2019-03-05T16:14:23.628Z,1.13
2019-03-05T16:16:53.392Z,1.30
2019-03-05T16:19:23.070Z,1.10
2019-03-05T16:21:52.756Z,0.90
2019-03-05T16:24:22.437Z,1.07
2019-03-05T16:26:52.379Z,1.37
2019-03-05T16:29:22.956Z,1.27
2019-03-05T16:32:11.287Z,1.37
2019-03-05T16:34:59.241Z,1.07
2019-03-05T16:37:39.242Z,1.43
2019-03-05T16:40:16.647Z,1.10
2019-03-05T16:43:17.512Z,1.20
2019-03-05T16:46:12.000Z,1.10
2019-03-05T16:48:53.953Z,1.50
2019-03-05T16:51:39.528Z,1.62
2019-03-05T16:54:40.165Z,1.40
2019-03-05T16:57:19.448Z,1.10
2019-03-05T17:00:14.346Z,1.40
2019-03-05T17:02:56.709Z,1.10
2019-03-05T17:05:39.111Z,0.82
2019-03-05T17:08:27.890Z,1.13
2019-03-05T17:11:19.486Z,1.25
2019-03-05T17:13:49.745Z,0.73
2019-03-05T17:16:19.925Z,1.35
2019-03-05T17:18:49.906Z,1.00
2019-03-05T17:21:26.989Z,0.70
2019-03-05T17:23:51.973Z,0.83
2019-03-05T17:26:21.780Z,0.80
2019-03-05T17:28:51.508Z,0.80
2019-03-05T17:31:21.460Z,0.50
2019-03-05T17:33:52.188Z,0.93
2019-03-05T17:36:22.042Z,0.30
2019-03-05T17:38:52.688Z,0.65
2019-03-05T17:41:22.498Z,0.53
2019-03-05T17:43:52.456Z,1.00
2019-03-05T17:46:22.375Z,1.17
2019-03-05T17:48:52.203Z,1.10
2019-03-05T17:51:22.386Z,1.00
2019-03-05T17:53:52.712Z,1.42
2019-03-05T17:56:22.658Z,0.43
2019-03-05T17:58:52.381Z,1.87
2019-03-05T18:01:22.210Z,0.50
2019-03-05T18:03:51.944Z,3.57
2019-03-05T18:06:21.984Z,1.60
2019-03-05T18:08:51.659Z,1.80
2019-03-05T18:11:21.618Z,1.67
2019-03-05T18:13:51.814Z,2.07
2019-03-05T18:16:22.766Z,1.50
2019-03-05T18:18:52.482Z,1.77
2019-03-05T18:21:22.462Z,2.52
2019-03-05T18:23:53.447Z,2.00
2019-03-05T18:26:23.102Z,2.30
2019-03-05T18:28:53.260Z,2.30
2019-03-05T18:31:24.603Z,2.03
2019-03-05T18:33:54.357Z,2.67
2019-03-05T18:36:24.304Z,1.93
2019-03-05T18:38:54.060Z,2.17
2019-03-05T18:41:24.044Z,2.40
2019-03-05T18:43:54.365Z,3.17
2019-03-05T18:46:24.176Z,2.30
2019-03-05T18:48:53.906Z,2.43
2019-03-05T18:51:23.555Z,3.00
2019-03-05T18:53:53.559Z,3.10
2019-03-05T18:56:23.272Z,2.80
2019-03-05T18:58:53.723Z,2.57
2019-03-05T19:01:23.364Z,2.17
2019-03-05T19:03:53.412Z,2.10
2019-03-05T19:06:23.538Z,2.27
2019-03-05T19:08:53.283Z,1.97
2019-03-05T19:11:23.083Z,2.20
2019-03-05T19:13:52.765Z,2.10
2019-03-05T19:16:24.049Z,2.37
2019-03-05T19:18:53.714Z,1.93
2019-03-05T19:21:25.126Z,2.23
2019-03-05T19:23:54.911Z,1.87
2019-03-05T19:26:24.574Z,2.03
2019-03-05T19:28:54.597Z,1.43
2019-03-05T19:31:24.691Z,2.50
2019-03-05T19:33:54.343Z,2.07
2019-03-05T19:36:24.011Z,2.20
2019-03-05T19:38:54.009Z,2.30
2019-03-05T19:41:23.751Z,2.40
2019-03-05T19:43:53.461Z,1.80
2019-03-05T19:46:23.221Z,2.08
2019-03-05T19:48:52.878Z,2.20
2019-03-05T19:51:22.977Z,2.10
2019-03-05T19:53:52.632Z,1.60
2019-03-05T19:56:23.512Z,1.73
2019-03-05T19:58:53.157Z,1.90
2019-03-05T20:01:33.022Z,2.05
2019-03-05T20:04:11.225Z,1.53
2019-03-05T20:06:34.279Z,2.30
2019-03-05T20:09:04.871Z,1.60
2019-03-05T20:11:36.442Z,1.50
2019-03-05T20:14:06.499Z,1.70
2019-03-05T20:16:36.230Z,1.90
2019-03-05T20:19:05.950Z,1.70
2019-03-05T20:21:36.578Z,2.30
2019-03-05T20:24:07.544Z,1.80
2019-03-05T20:26:37.523Z,1.70
2019-03-05T20:29:07.174Z,1.77
2019-03-05T20:31:37.143Z,1.17
2019-03-05T20:34:06.885Z,1.50
2019-03-05T20:36:37.619Z,1.77
2019-03-05T20:39:07.763Z,1.60
2019-03-05T20:41:39.360Z,1.53
2019-03-05T20:44:09.553Z,1.50
2019-03-05T20:46:39.347Z,1.30
2019-03-05T20:49:09.131Z,1.90
2019-03-05T20:51:38.962Z,1.70
2019-03-05T20:54:08.874Z,1.60
2019-03-05T20:56:38.533Z,1.80
2019-03-05T20:59:08.753Z,1.75
2019-03-05T21:01:38.408Z,1.70
2019-03-05T21:04:08.524Z,1.87
2019-03-05T21:06:38.356Z,1.70
2019-03-05T21:09:22.776Z,1.40
2019-03-05T21:11:53.187Z,1.55
2019-03-05T21:14:22.909Z,1.70
2019-03-05T21:16:53.151Z,1.40
2019-03-05T21:19:23.525Z,1.20
2019-03-05T21:21:53.259Z,1.62
2019-03-05T21:24:23.744Z,2.10
2019-03-05T21:26:53.720Z,1.80
2019-03-05T21:29:23.678Z,1.40
2019-03-05T21:31:53.442Z,1.67
2019-03-05T21:34:23.123Z,1.62
2019-03-05T21:36:52.850Z,1.63
2019-03-05T21:39:23.466Z,1.77
2019-03-05T21:41:53.186Z,1.63
2019-03-05T21:44:22.933Z,1.80
2019-03-05T21:46:52.683Z,1.77
2019-03-05T21:49:22.636Z,2.30
2019-03-05T21:51:52.487Z,2.10
2019-03-05T21:54:22.195Z,1.83
2019-03-05T21:56:51.977Z,1.90
2019-03-05T21:59:21.712Z,2.43
2019-03-05T22:01:51.390Z,2.10
2019-03-05T22:04:21.149Z,2.30
2019-03-05T22:06:50.820Z,2.10
2019-03-05T22:09:20.873Z,1.77
2019-03-05T22:11:50.653Z,2.85
2019-03-05T22:14:20.692Z,2.03
2019-03-05T22:16:50.355Z,2.23
2019-03-05T22:19:20.310Z,2.20
2019-03-05T22:21:50.117Z,2.23
2019-03-05T22:24:19.797Z,2.30
2019-03-05T22:26:49.569Z,1.90
2019-03-05T22:29:19.302Z,1.90
2019-03-05T22:31:50.132Z,1.93
2019-03-05T22:34:20.519Z,2.03
2019-03-05T22:36:50.639Z,2.10
2019-03-05T22:39:20.289Z,2.00
2019-03-05T22:41:50.678Z,2.33
2019-03-05T22:44:20.686Z,2.03
2019-03-05T22:46:50.799Z,2.43
2019-03-05T22:49:21.361Z,2.00
2019-03-05T22:51:51.009Z,2.07
2019-03-05T22:54:21.262Z,2.05
2019-03-05T22:56:50.999Z,2.17
2019-03-05T22:59:20.690Z,1.80
2019-03-05T23:01:50.519Z,2.30
2019-03-05T23:04:31.534Z,2.30
2019-03-05T23:07:01.432Z,1.80
2019-03-05T23:09:31.889Z,1.98
2019-03-05T23:12:01.630Z,2.47
2019-03-05T23:14:31.828Z,2.37
2019-03-05T23:17:02.046Z,2.37
2019-03-05T23:19:32.482Z,2.23
2019-03-05T23:22:02.487Z,2.57
2019-03-05T23:24:32.714Z,2.70
2019-03-05T23:27:02.363Z,2.65
2019-03-05T23:29:39.591Z,2.67
2019-03-05T23:32:09.417Z,2.42
2019-03-05T23:34:39.516Z,2.20
2019-03-05T23:37:09.589Z,2.60
2019-03-05T23:39:39.980Z,2.77
2019-03-05T23:42:10.019Z,2.70
2019-03-05T23:44:40.536Z,2.60
2019-03-05T23:47:10.636Z,2.30
2019-03-05T23:49:40.567Z,3.12
2019-03-05T23:52:10.391Z,3.33
2019-03-05T23:54:40.059Z,2.40
2019-03-05T23:57:09.710Z,2.80
2019-03-05T23:59:39.401Z,2.97
